Augusta, Kentucky
Current Conditions -  °F | °C
As of 9:15 PM on Sunday 25 Jan 2015 (Local Time) from KFGX Reporting Station
Light Rain Light Rain  
Wind Chill: 31°   Ceiling: 2700
Heat Index: 36°   Visibility: 5mi
Dew Point: 35°   Wind: 6mph
Humidity: 97%   Direction: 90°E
Pressure: 29.7"   Gusts: NA
Location:  38.77°N, 84.01°W
Report Text: KFGX 260215Z AUTO 09005KT 5SM -RA OVC027 02/02 A2970 RMK AO2 T00200016
Loading
Personal Weather Stations






























Interactive Weather Map New forecast layout! Learn more

10-Day Weather Forecast

Advertisements
Track Severe Weather on mobile